MXA weather

Manila Municipal Airport
Manila, Arkansas, United States

Public forecast

Using degrees Fahrenheit for public forecast. Weather courtesy of forecast.io.

Closest aviation weather report (METAR) to Manila Municipal Airport

Report is more than 6 hours old.

Closest report is Arkansas International Airport, 11.1 nm (20.5 km) ENE. Retrieved 2020/07/01 17:57 UTC (3 days ago):

KBYH 011757Z 22009G15KT 9SM BKN042 BKN060 OVC075 32/24 A2988

Closest aviation forecast (TAF) to Manila Municipal Airport

Closest forecast is Jonesboro Municipal Airport, 24.2 nm (44.9 km) W. Retrieved 2020/07/04 06:22 UTC (4 hours ago):

TAF KJBR 040520Z 0406/0506 05003KT P6SM SKC FM041500 09006KT P6SM SCT035 FM050200 06004KT P6SM BKN250 AMD NOT SKED